Time;durP1;ratioP1;P1;durP2;ratioP2;P2;SDS_P1;SDS_P2;PMS_P1;PMS_P2;Temp;Humidity;BMP_temperature;BMP_pressure;BME280_temperature;BME280_humidity;BME280_pressure;Samples;Min_cycle;Max_cycle;Signal;HPM_P1;HPM_P2
2022/09/20 00:00:41;;;;;;;2.10;1.60;;;10.70;99.90;;;;;;7378361;19;21338;-45
2022/09/20 00:03:11;;;;;;;5.10;2.10;;;10.80;99.90;;;;;;7377335;19;20403;-47
2022/09/20 00:05:43;;;;;;;4.10;1.80;;;10.90;99.90;;;;;;7377309;19;20425;-45
2022/09/20 00:08:17;;;;;;;3.93;1.80;;;11.00;99.90;;;;;;7377759;19;20371;-44
2022/09/20 00:10:47;;;;;;;7.30;2.17;;;11.10;99.90;;;;;;7375322;19;21001;-45
2022/09/20 00:13:19;;;;;;;5.40;2.13;;;11.10;99.90;;;;;;7377733;19;20387;-45
2022/09/20 00:15:48;;;;;;;5.73;2.90;;;11.10;99.90;;;;;;7373936;19;20400;-45
2022/09/20 00:18:18;;;;;;;2.40;2.07;;;11.00;99.90;;;;;;7373135;19;20379;-45
2022/09/20 00:20:51;;;;;;;3.67;1.93;;;11.00;99.90;;;;;;7373555;19;20372;-45
2022/09/20 00:23:23;;;;;;;2.50;2.00;;;11.00;99.90;;;;;;7372703;19;20902;-46
2022/09/20 00:25:57;;;;;;;7.60;1.97;;;11.00;99.90;;;;;;7378871;19;20387;-45
2022/09/20 00:28:30;;;;;;;4.00;1.40;;;11.10;99.90;;;;;;7375493;19;20379;-45
2022/09/20 00:31:00;;;;;;;6.07;2.60;;;11.00;99.90;;;;;;7376324;19;20383;-45
2022/09/20 00:35:06;;;;;;;5.00;1.80;;;11.10;99.90;;;;;;7379590;19;20372;-45
2022/09/20 00:36:16;;;;;;;3.83;2.10;;;11.10;99.90;;;;;;7376283;19;20403;-45
2022/09/20 00:38:46;;;;;;;2.30;1.63;;;11.20;99.90;;;;;;7373275;19;21008;-44
2022/09/20 00:41:15;;;;;;;2.80;1.50;;;11.10;99.90;;;;;;7373108;19;20380;-46
2022/09/20 00:43:48;;;;;;;2.23;1.43;;;11.10;99.90;;;;;;7381599;19;20417;-45
2022/09/20 00:46:25;;;;;;;4.77;2.10;;;11.10;99.90;;;;;;7379403;19;20372;-46
2022/09/20 00:48:57;;;;;;;4.17;1.90;;;11.10;99.90;;;;;;7381783;19;20384;-45
2022/09/20 00:51:30;;;;;;;3.30;1.77;;;11.10;99.90;;;;;;7371391;19;20395;-46
2022/09/20 00:54:04;;;;;;;5.20;2.87;;;11.10;99.90;;;;;;7371380;19;20376;-46
2022/09/20 00:56:38;;;;;;;3.23;1.60;;;11.10;99.90;;;;;;7370955;19;20708;-45
2022/09/20 00:59:16;;;;;;;3.07;1.60;;;11.00;99.90;;;;;;7373475;19;20372;-46
2022/09/20 01:01:52;;;;;;;7.40;2.33;;;11.00;99.90;;;;;;7373902;19;20424;-45
2022/09/20 01:04:25;;;;;;;4.07;1.77;;;11.00;99.90;;;;;;7380768;19;20697;-45
2022/09/20 01:06:59;;;;;;;4.60;2.03;;;10.90;99.90;;;;;;7377724;19;20471;-47
2022/09/20 01:09:29;;;;;;;2.30;1.60;;;11.00;99.90;;;;;;7383799;19;20388;-45
2022/09/20 01:11:59;;;;;;;3.23;1.90;;;10.80;99.90;;;;;;7355130;19;20379;-46
2022/09/20 01:14:32;;;;;;;3.60;2.00;;;10.90;99.90;;;;;;7376026;19;20415;-45
2022/09/20 01:17:05;;;;;;;4.97;2.63;;;11.00;99.90;;;;;;7375482;19;20715;-45
2022/09/20 01:19:44;;;;;;;9.80;2.43;;;11.10;99.90;;;;;;7385476;19;20379;-46
2022/09/20 01:22:24;;;;;;;5.43;2.03;;;10.80;99.90;;;;;;7379899;19;20372;-46
2022/09/20 01:25:02;;;;;;;7.13;1.87;;;10.80;99.90;;;;;;7381087;19;20380;-46
2022/09/20 01:27:43;;;;;;;4.60;2.13;;;10.90;99.90;;;;;;7367396;19;20828;-45
2022/09/20 01:30:17;;;;;;;6.63;2.00;;;11.00;99.90;;;;;;7360599;19;20499;-46
2022/09/20 01:33:03;;;;;;;4.40;2.13;;;10.90;99.90;;;;;;7379308;19;20375;-46
2022/09/20 01:35:37;;;;;;;4.50;2.00;;;11.10;99.90;;;;;;7385277;19;20379;-46
2022/09/20 01:38:26;;;;;;;3.57;1.43;;;11.20;99.90;;;;;;7379531;19;20372;-45
2022/09/20 01:41:05;;;;;;;2.60;1.70;;;11.20;99.90;;;;;;7355622;19;21002;-45
2022/09/20 01:43:47;;;;;;;2.27;1.60;;;11.10;99.90;;;;;;7361486;19;20399;-46
2022/09/20 01:46:30;;;;;;;3.30;1.73;;;11.10;99.90;;;;;;7375623;19;20478;-46
2022/09/20 01:49:12;;;;;;;2.90;1.37;;;11.20;99.90;;;;;;7381206;19;20429;-46
2022/09/20 01:52:19;;;;;;;2.43;1.50;;;11.20;99.90;;;;;;7384385;19;20368;-46
2022/09/20 01:55:17;;;;;;;3.10;1.87;;;11.30;99.90;;;;;;7384205;19;20380;-46
2022/09/20 01:58:25;;;;;;;5.63;2.17;;;11.20;99.90;;;;;;7363309;19;20421;-46
2022/09/20 02:01:22;;;;;;;4.60;1.47;;;11.30;99.90;;;;;;7373812;19;20443;-46
2022/09/20 02:04:24;;;;;;;5.40;2.30;;;11.40;99.90;;;;;;7378716;19;20419;-45
2022/09/20 02:07:17;;;;;;;4.13;1.67;;;11.40;99.90;;;;;;7382241;19;20376;-48
2022/09/20 02:10:18;;;;;;;6.27;1.63;;;11.30;99.90;;;;;;7364869;19;20424;-47
2022/09/20 02:12:54;;;;;;;3.40;1.83;;;11.30;99.90;;;;;;7366633;19;20448;-47
2022/09/20 02:15:50;;;;;;;6.20;1.70;;;11.20;99.90;;;;;;7376565;19;20376;-47
2022/09/20 02:18:40;;;;;;;2.10;1.50;;;11.00;99.90;;;;;;7376352;19;20712;-47
2022/09/20 02:21:20;;;;;;;3.97;1.63;;;11.10;99.90;;;;;;7378973;19;20384;-45
2022/09/20 02:23:59;;;;;;;2.57;1.50;;;11.10;99.90;;;;;;7368533;19;20383;-45
2022/09/20 02:26:43;;;;;;;5.90;1.70;;;11.20;99.90;;;;;;7376683;19;20384;-47
2022/09/20 02:29:24;;;;;;;8.43;1.73;;;11.20;99.90;;;;;;7375422;19;20384;-45
2022/09/20 02:32:14;;;;;;;5.00;1.63;;;11.40;99.90;;;;;;7374676;19;20452;-47
2022/09/20 02:35:10;;;;;;;2.80;2.13;;;11.50;99.90;;;;;;7378167;19;20994;-45
2022/09/20 02:38:13;;;;;;;6.00;1.40;;;11.50;99.90;;;;;;7357452;19;20811;-46
2022/09/20 02:41:02;;;;;;;7.73;1.97;;;11.50;99.90;;;;;;7374846;19;20368;-47
2022/09/20 02:43:39;;;;;;;2.00;1.57;;;11.60;99.90;;;;;;7380034;19;21047;-45
2022/09/20 02:46:19;;;;;;;8.20;2.40;;;11.70;99.90;;;;;;7376182;19;20404;-47
2022/09/20 02:48:57;;;;;;;4.27;1.77;;;11.80;99.90;;;;;;7369831;19;20403;-49
2022/09/20 02:51:37;;;;;;;8.03;2.50;;;11.90;99.90;;;;;;7365296;19;20368;-45
2022/09/20 02:54:18;;;;;;;1.67;1.23;;;11.90;99.90;;;;;;7375873;19;20372;-47
2022/09/20 02:56:54;;;;;;;2.47;1.70;;;11.80;99.90;;;;;;7377285;19;20353;-45
2022/09/20 02:59:31;;;;;;;2.70;1.80;;;11.80;99.90;;;;;;7377885;19;20508;-45
2022/09/20 03:02:10;;;;;;;3.43;2.00;;;11.70;99.90;;;;;;7368837;19;20439;-45
2022/09/20 03:04:55;;;;;;;5.10;2.17;;;11.70;99.90;;;;;;7367012;19;20383;-44
2022/09/20 03:07:36;;;;;;;6.50;1.83;;;11.50;99.90;;;;;;7377750;19;20449;-45
2022/09/20 03:10:18;;;;;;;3.40;1.27;;;11.70;99.90;;;;;;7371990;19;20395;-47
2022/09/20 03:12:59;;;;;;;4.40;1.83;;;11.70;99.90;;;;;;7376358;19;20368;-45
2022/09/20 03:15:47;;;;;;;8.27;2.10;;;11.70;99.90;;;;;;7373809;19;20460;-47
2022/09/20 03:18:19;;;;;;;3.37;1.63;;;11.80;99.90;;;;;;7377658;19;21327;-45
2022/09/20 03:21:01;;;;;;;3.93;1.43;;;11.70;99.90;;;;;;7376976;19;20390;-47
2022/09/20 03:23:50;;;;;;;14.83;2.70;;;11.60;99.90;;;;;;7383124;19;20424;-47
2022/09/20 03:26:33;;;;;;;3.33;1.40;;;11.60;99.90;;;;;;7380645;19;20753;-44
2022/09/20 03:29:06;;;;;;;3.77;1.50;;;11.50;99.90;;;;;;7358531;19;20459;-47
2022/09/20 03:31:51;;;;;;;4.00;2.13;;;11.50;99.90;;;;;;7368275;19;20937;-47
2022/09/20 03:34:35;;;;;;;3.00;1.93;;;11.60;99.90;;;;;;7378982;19;20372;-46
2022/09/20 03:37:28;;;;;;;4.83;1.90;;;11.30;99.90;;;;;;7380269;19;20950;-47
2022/09/20 03:40:39;;;;;;;4.43;1.60;;;11.30;99.90;;;;;;7378028;19;20380;-46
2022/09/20 03:43:21;;;;;;;4.73;1.50;;;11.30;99.90;;;;;;7383340;19;20426;-47
2022/09/20 03:46:04;;;;;;;5.23;1.57;;;11.40;99.90;;;;;;7371058;19;20380;-46
2022/09/20 03:49:06;;;;;;;4.27;1.40;;;11.30;99.90;;;;;;7379946;19;20412;-47
2022/09/20 03:51:48;;;;;;;3.80;1.33;;;11.40;99.90;;;;;;7379471;19;20511;-46
2022/09/20 03:54:47;;;;;;;9.33;1.73;;;11.50;99.90;;;;;;7364186;19;20413;-47
2022/09/20 03:57:59;;;;;;;4.90;1.73;;;11.50;99.90;;;;;;7363588;19;20389;-46
2022/09/20 04:00:44;;;;;;;3.27;1.67;;;11.50;99.90;;;;;;7372826;19;20447;-47
2022/09/20 04:03:27;;;;;;;2.03;1.40;;;11.60;99.90;;;;;;7369266;19;20396;-47
2022/09/20 04:06:15;;;;;;;4.60;1.40;;;11.60;99.90;;;;;;7375046;19;20719;-47
2022/09/20 04:09:17;;;;;;;1.73;1.60;;;11.60;99.90;;;;;;7374841;19;20387;-46
2022/09/20 04:11:55;;;;;;;1.67;1.30;;;11.60;99.90;;;;;;7373431;19;20378;-46
2022/09/20 04:14:31;;;;;;;2.10;1.40;;;11.50;99.90;;;;;;7376401;19;20403;-47
2022/09/20 04:17:23;;;;;;;2.40;1.73;;;11.50;99.90;;;;;;7378541;19;20368;-47
2022/09/20 04:20:00;;;;;;;4.20;2.00;;;11.50;99.90;;;;;;7374184;19;20958;-47
2022/09/20 04:22:31;;;;;;;6.37;1.70;;;11.60;99.90;;;;;;7378061;19;20372;-45
2022/09/20 04:25:07;;;;;;;4.87;1.57;;;11.70;99.90;;;;;;7371926;19;20384;-46
2022/09/20 04:27:40;;;;;;;1.93;1.73;;;11.70;99.90;;;;;;7378060;19;20388;-46
2022/09/20 04:30:19;;;;;;;7.57;2.73;;;11.50;99.90;;;;;;7374235;19;20833;-46
2022/09/20 04:33:00;;;;;;;1.73;1.60;;;11.50;99.90;;;;;;7372186;19;20435;-46
2022/09/20 04:38:28;;;;;;;4.57;1.60;;;11.60;99.90;;;;;;7357341;19;20373;-47
2022/09/20 04:41:10;;;;;;;3.73;2.10;;;11.70;99.90;;;;;;7378893;19;20429;-47
2022/09/20 04:44:10;;;;;;;6.13;2.20;;;11.90;99.90;;;;;;7373387;19;20368;-47
2022/09/20 04:47:14;;;;;;;3.93;2.47;;;12.00;99.90;;;;;;7360880;19;22276;-46
2022/09/20 04:50:19;;;;;;;4.33;2.00;;;12.10;99.90;;;;;;7377050;19;20372;-46
2022/09/20 04:53:31;;;;;;;3.37;2.00;;;12.10;99.90;;;;;;7374097;19;20391;-46
2022/09/20 04:56:04;;;;;;;3.40;2.23;;;12.00;99.90;;;;;;7377794;19;20387;-46
2022/09/20 04:58:41;;;;;;;3.80;2.40;;;11.90;99.90;;;;;;7380918;19;20759;-46
2022/09/20 05:01:49;;;;;;;6.93;2.40;;;12.00;99.90;;;;;;7381054;19;20432;-46
2022/09/20 05:04:55;;;;;;;3.97;2.50;;;12.00;99.90;;;;;;7380755;19;20467;-46
2022/09/20 05:07:53;;;;;;;4.73;2.50;;;11.80;99.90;;;;;;7379555;19;20917;-46
2022/09/20 05:11:03;;;;;;;2.80;2.27;;;11.70;99.90;;;;;;7376154;19;20941;-46
2022/09/20 05:13:42;;;;;;;4.40;2.50;;;11.80;99.90;;;;;;7381565;19;20914;-46
2022/09/20 05:16:23;;;;;;;4.70;2.80;;;11.70;99.90;;;;;;7377106;19;20918;-46
2022/09/20 05:19:16;;;;;;;5.00;3.13;;;11.60;99.90;;;;;;7378390;19;20720;-46
2022/09/20 05:22:17;;;;;;;4.80;2.90;;;11.80;99.90;;;;;;7376479;19;20918;-47
2022/09/20 05:25:10;;;;;;;3.90;2.43;;;11.80;99.90;;;;;;7377286;19;20428;-47
2022/09/20 05:27:52;;;;;;;7.50;3.10;;;11.70;99.90;;;;;;7365466;19;20409;-47
2022/09/20 05:30:32;;;;;;;5.50;3.70;;;11.60;99.90;;;;;;7373726;19;20397;-47
2022/09/20 05:33:13;;;;;;;6.83;3.27;;;11.60;99.90;;;;;;7377742;19;20380;-47
2022/09/20 05:35:50;;;;;;;7.87;2.77;;;11.70;99.90;;;;;;7377793;19;21349;-47
2022/09/20 05:38:28;;;;;;;7.23;2.83;;;11.70;99.90;;;;;;7381389;19;20375;-47
2022/09/20 05:41:12;;;;;;;5.40;3.00;;;11.70;99.90;;;;;;7382355;19;20380;-47
2022/09/20 05:43:54;;;;;;;5.33;3.20;;;11.50;99.90;;;;;;7381205;19;20945;-47
2022/09/20 05:46:41;;;;;;;8.83;2.60;;;11.60;99.90;;;;;;7377591;19;20384;-47
2022/09/20 05:49:21;;;;;;;3.47;2.87;;;11.70;99.90;;;;;;7379085;19;20391;-47
2022/09/20 05:52:24;;;;;;;5.87;2.60;;;11.70;99.90;;;;;;7378689;19;20454;-46
2022/09/20 05:55:24;;;;;;;5.43;2.67;;;11.60;99.90;;;;;;7377718;19;20419;-46
2022/09/20 05:58:14;;;;;;;5.90;3.30;;;11.50;99.90;;;;;;7385692;19;20364;-46
2022/09/20 06:00:51;;;;;;;5.67;3.20;;;11.50;99.90;;;;;;7385536;19;20439;-46
2022/09/20 06:03:32;;;;;;;5.03;2.90;;;11.50;99.90;;;;;;7386069;19;20364;-46
2022/09/20 06:06:09;;;;;;;7.60;3.30;;;11.40;99.90;;;;;;7380465;19;20388;-46
2022/09/20 06:09:07;;;;;;;5.17;3.20;;;11.40;99.90;;;;;;7386048;19;20392;-46
2022/09/20 06:11:58;;;;;;;4.20;2.97;;;11.60;99.90;;;;;;7382396;19;20404;-47
2022/09/20 06:14:41;;;;;;;5.30;3.27;;;11.70;99.90;;;;;;7385238;19;20423;-46
2022/09/20 06:17:26;;;;;;;4.63;3.43;;;11.90;99.90;;;;;;7382450;19;20415;-47
2022/09/20 06:20:19;;;;;;;7.17;3.77;;;12.10;99.90;;;;;;7387586;19;20906;-46
2022/09/20 06:22:51;;;;;;;10.80;3.77;;;12.10;99.90;;;;;;7386849;19;20390;-46
2022/09/20 06:25:28;;;;;;;7.57;3.40;;;12.00;99.90;;;;;;7381484;19;20372;-46
2022/09/20 06:28:06;;;;;;;4.43;2.93;;;12.00;99.90;;;;;;7381672;19;20371;-46
2022/09/20 06:30:39;;;;;;;8.33;3.40;;;12.10;99.90;;;;;;7387179;19;20375;-46
2022/09/20 06:33:17;;;;;;;8.90;3.53;;;12.10;99.90;;;;;;7381403;19;20412;-47
2022/09/20 06:35:51;;;;;;;7.63;3.83;;;12.00;99.90;;;;;;7382339;19;20388;-46
2022/09/20 06:41:34;;;;;;;8.83;3.80;;;12.00;99.90;;;;;;7384634;19;20384;-46
2022/09/20 06:44:07;;;;;;;3.90;3.30;;;12.00;99.90;;;;;;7385190;19;20379;-46
2022/09/20 06:46:40;;;;;;;7.57;3.90;;;12.00;99.90;;;;;;7383323;19;20392;-47
2022/09/20 06:49:12;;;;;;;6.80;4.03;;;12.00;99.90;;;;;;7382067;19;20387;-46
2022/09/20 06:51:42;;;;;;;5.00;3.23;;;12.20;99.90;;;;;;7378407;19;21013;-46
2022/09/20 06:54:18;;;;;;;7.70;2.90;;;12.20;99.90;;;;;;7381006;19;20416;-47
2022/09/20 06:56:51;;;;;;;12.43;3.30;;;12.30;99.90;;;;;;7383689;19;20384;-46
2022/09/20 06:59:20;;;;;;;5.33;3.20;;;12.30;99.90;;;;;;7383624;19;20889;-46
2022/09/20 07:01:50;;;;;;;6.23;2.57;;;12.50;99.90;;;;;;7380831;19;20809;-47
2022/09/20 07:04:25;;;;;;;4.50;2.60;;;12.70;99.90;;;;;;7385544;19;20447;-47
2022/09/20 07:06:55;;;;;;;3.93;2.60;;;13.00;99.90;;;;;;7378895;19;20371;-46
2022/09/20 07:09:25;;;;;;;5.70;2.47;;;13.30;99.90;;;;;;7380503;19;20388;-46
2022/09/20 07:11:54;;;;;;;6.10;2.40;;;13.50;99.90;;;;;;7381908;19;20476;-47
2022/09/20 07:14:25;;;;;;;4.70;2.60;;;13.70;99.90;;;;;;7383069;19;20563;-47
2022/09/20 07:16:55;;;;;;;2.70;1.97;;;13.90;99.90;;;;;;7384061;19;20927;-47
2022/09/20 07:19:27;;;;;;;6.60;2.90;;;14.10;99.90;;;;;;7383219;19;20368;-47
2022/09/20 07:21:56;;;;;;;7.27;2.60;;;14.10;99.90;;;;;;7379079;19;20703;-46
2022/09/20 07:24:26;;;;;;;5.40;2.30;;;14.10;99.90;;;;;;7374749;19;20378;-46
2022/09/20 07:27:00;;;;;;;7.40;2.63;;;14.10;99.90;;;;;;7377927;19;20783;-47
2022/09/20 07:29:30;;;;;;;6.30;2.53;;;14.10;99.90;;;;;;7382313;19;20471;-46
2022/09/20 07:32:00;;;;;;;4.87;2.30;;;14.10;99.90;;;;;;7381945;19;20382;-47
2022/09/20 07:34:32;;;;;;;5.43;2.50;;;14.10;99.30;;;;;;7379685;19;20389;-46
2022/09/20 07:37:02;;;;;;;9.77;2.67;;;14.00;99.90;;;;;;7376650;19;20950;-47
2022/09/20 07:39:31;;;;;;;7.23;2.80;;;14.10;99.90;;;;;;7381955;19;20392;-47
2022/09/20 07:42:05;;;;;;;5.43;2.57;;;14.10;99.90;;;;;;7383519;19;20384;-47
2022/09/20 07:44:39;;;;;;;10.80;3.40;;;14.10;99.90;;;;;;7383443;19;20745;-47
2022/09/20 07:47:10;;;;;;;8.30;2.60;;;14.10;99.90;;;;;;7381090;19;20455;-47
2022/09/20 07:49:42;;;;;;;9.00;3.47;;;14.10;99.70;;;;;;7381639;19;20403;-47
2022/09/20 07:52:13;;;;;;;4.43;2.73;;;14.10;99.90;;;;;;7384802;19;20413;-47
2022/09/20 07:54:44;;;;;;;4.07;2.20;;;14.10;99.90;;;;;;7382321;19;20379;-46
2022/09/20 07:57:14;;;;;;;3.40;2.00;;;14.20;99.90;;;;;;7382679;19;20384;-47
2022/09/20 07:59:43;;;;;;;7.90;2.70;;;14.40;99.90;;;;;;7382687;19;20376;-47
2022/09/20 08:02:16;;;;;;;5.50;2.33;;;14.60;98.70;;;;;;7382126;19;20797;-47
2022/09/20 08:04:48;;;;;;;4.63;2.90;;;14.60;97.20;;;;;;7382367;19;20357;-46
2022/09/20 08:07:18;;;;;;;2.57;1.57;;;14.70;93.70;;;;;;7380675;19;20473;-47
2022/09/20 08:09:48;;;;;;;4.00;1.93;;;14.80;93.00;;;;;;7378549;19;20423;-47
2022/09/20 08:12:18;;;;;;;9.80;2.30;;;15.00;90.70;;;;;;7383244;19;20633;-47
2022/09/20 08:14:48;;;;;;;7.07;2.20;;;15.40;89.30;;;;;;7378781;19;20380;-47
2022/09/20 08:17:18;;;;;;;6.00;2.80;;;15.50;83.60;;;;;;7380219;19;20372;-47
2022/09/20 08:19:52;;;;;;;3.53;1.70;;;15.70;85.40;;;;;;7382903;19;20364;-47
2022/09/20 08:22:23;;;;;;;6.20;1.70;;;15.70;80.30;;;;;;7381967;19;20380;-45
2022/09/20 08:24:53;;;;;;;7.80;2.00;;;15.70;79.80;;;;;;7378286;19;20383;-45
2022/09/20 08:27:22;;;;;;;6.77;1.97;;;15.90;76.50;;;;;;7381220;19;20385;-47
2022/09/20 08:29:53;;;;;;;7.50;2.27;;;15.80;73.70;;;;;;7379391;19;20376;-45
2022/09/20 08:32:23;;;;;;;10.30;2.00;;;15.80;74.70;;;;;;7379848;19;20814;-48
2022/09/20 08:34:55;;;;;;;5.37;1.67;;;15.80;73.30;;;;;;7380883;19;20388;-46
2022/09/20 08:37:24;;;;;;;8.30;1.93;;;15.90;75.50;;;;;;7381916;19;20372;-48
2022/09/20 08:39:54;;;;;;;2.77;1.70;;;16.30;76.10;;;;;;7379939;19;20380;-46
2022/09/20 08:42:29;;;;;;;7.77;1.97;;;16.70;72.50;;;;;;7377071;19;20380;-46
2022/09/20 08:45:02;;;;;;;7.90;1.60;;;17.50;69.90;;;;;;7373046;19;20372;-47
2022/09/20 08:47:34;;;;;;;5.33;1.57;;;18.20;67.00;;;;;;7375785;19;20414;-48
2022/09/20 08:50:13;;;;;;;6.10;1.27;;;18.90;62.00;;;;;;7380238;19;20391;-46
2022/09/20 08:52:46;;;;;;;5.40;1.60;;;19.40;58.90;;;;;;7376531;19;20364;-47
2022/09/20 08:55:18;;;;;;;5.90;1.70;;;19.20;56.80;;;;;;7379545;19;20399;-47
2022/09/20 08:57:51;;;;;;;4.90;1.70;;;19.10;56.20;;;;;;7378521;19;20376;-47
2022/09/20 09:00:24;;;;;;;4.87;1.50;;;18.70;57.20;;;;;;7379282;19;20382;-46
2022/09/20 09:02:57;;;;;;;4.53;1.70;;;18.40;57.90;;;;;;7379915;19;20391;-47
2022/09/20 09:05:35;;;;;;;4.20;1.73;;;18.50;58.40;;;;;;7379604;19;20376;-47
2022/09/20 09:08:15;;;;;;;2.63;1.40;;;18.50;57.20;;;;;;7380850;19;20922;-47
2022/09/20 09:10:46;;;;;;;6.50;2.63;;;18.30;57.70;;;;;;7379668;19;20436;-47
2022/09/20 09:13:22;;;;;;;3.20;1.97;;;18.00;56.90;;;;;;7375940;19;20368;-47
2022/09/20 09:15:57;;;;;;;5.47;1.77;;;18.30;58.80;;;;;;7377296;19;20386;-46
2022/09/20 09:18:34;;;;;;;5.20;1.97;;;18.60;58.00;;;;;;7381345;19;20371;-46
2022/09/20 09:21:09;;;;;;;4.10;1.37;;;18.60;57.10;;;;;;7381213;19;20475;-51
2022/09/20 09:23:46;;;;;;;6.03;2.03;;;18.10;57.20;;;;;;7381330;19;20375;-47
2022/09/20 09:26:21;;;;;;;3.50;1.70;;;17.70;58.00;;;;;;7380146;19;20411;-47
2022/09/20 09:29:09;;;;;;;3.53;1.40;;;17.20;59.80;;;;;;7378750;19;20375;-47
2022/09/20 09:31:39;;;;;;;2.87;1.40;;;17.00;60.00;;;;;;7386963;19;20637;-49
2022/09/20 09:34:26;;;;;;;5.73;1.77;;;16.60;61.30;;;;;;7388095;19;20408;-47
2022/09/20 09:36:58;;;;;;;10.90;1.97;;;16.40;63.00;;;;;;7387997;19;20459;-46
2022/09/20 09:39:30;;;;;;;4.90;1.50;;;16.20;64.80;;;;;;7388218;19;20391;-46
2022/09/20 09:42:20;;;;;;;3.33;1.60;;;16.10;65.40;;;;;;7386965;19;20371;-47
2022/09/20 09:44:50;;;;;;;4.10;1.80;;;16.30;67.20;;;;;;7386783;19;20384;-47
2022/09/20 09:47:30;;;;;;;3.93;1.47;;;16.90;65.10;;;;;;7386432;19;21046;-47
2022/09/20 09:50:00;;;;;;;8.77;1.93;;;18.00;60.20;;;;;;7388139;19;20407;-47
2022/09/20 09:52:34;;;;;;;5.00;1.43;;;18.40;58.50;;;;;;7386602;19;20390;-47
2022/09/20 09:55:05;;;;;;;4.40;2.20;;;18.50;57.80;;;;;;7385716;19;20387;-47
2022/09/20 09:57:44;;;;;;;4.50;1.53;;;18.10;58.60;;;;;;7384764;19;21084;-47
2022/09/20 10:00:16;;;;;;;6.20;1.60;;;17.70;59.70;;;;;;7386077;19;20387;-46
2022/09/20 10:03:08;;;;;;;4.87;1.77;;;17.30;61.90;;;;;;7386112;19;20893;-46
2022/09/20 10:05:47;;;;;;;4.40;2.10;;;16.90;61.20;;;;;;7389188;19;21060;-47
2022/09/20 10:08:36;;;;;;;5.77;1.60;;;16.80;62.80;;;;;;7384205;19;20381;-46
2022/09/20 10:11:21;;;;;;;2.97;1.40;;;16.80;64.10;;;;;;7383697;19;20372;-46
2022/09/20 10:14:05;;;;;;;6.77;1.83;;;16.90;62.10;;;;;;7382371;19;20387;-46
2022/09/20 10:16:44;;;;;;;6.77;2.17;;;17.30;62.90;;;;;;7382244;19;20383;-48
2022/09/20 10:19:23;;;;;;;2.70;1.30;;;18.00;59.00;;;;;;7383502;19;20372;-47
2022/09/20 10:22:00;;;;;;;7.03;1.80;;;18.30;57.40;;;;;;7386440;19;20372;-46
2022/09/20 10:24:43;;;;;;;4.73;1.70;;;18.20;56.40;;;;;;7387402;19;20438;-46
2022/09/20 10:27:26;;;;;;;4.90;1.50;;;18.30;56.10;;;;;;7385045;19;20408;-47
2022/09/20 10:30:04;;;;;;;4.10;1.33;;;18.70;55.80;;;;;;7385946;19;20467;-46
2022/09/20 10:32:54;;;;;;;4.40;1.80;;;18.80;54.70;;;;;;7386666;19;20388;-46
2022/09/20 10:35:29;;;;;;;6.97;1.60;;;18.70;54.90;;;;;;7388176;19;20384;-47
2022/09/20 10:38:14;;;;;;;4.93;1.30;;;18.50;55.00;;;;;;7386251;19;20367;-47
2022/09/20 10:43:56;;;;;;;3.30;1.70;;;19.20;55.00;;;;;;7383812;19;20453;-47
2022/09/20 10:46:36;;;;;;;5.60;1.50;;;20.10;52.10;;;;;;7384024;19;20376;-47
2022/09/20 10:49:17;;;;;;;5.20;1.83;;;20.60;52.00;;;;;;7385450;19;20372;-47
2022/09/20 10:51:53;;;;;;;5.97;2.20;;;20.60;51.10;;;;;;7381814;19;20383;-47
2022/09/20 10:54:38;;;;;;;4.40;1.47;;;20.30;51.50;;;;;;7384040;19;20403;-47
2022/09/20 10:57:26;;;;;;;2.83;1.50;;;19.70;51.90;;;;;;7383921;19;20406;-47
2022/09/20 11:00:21;;;;;;;5.93;2.60;;;19.30;51.70;;;;;;7384849;19;20403;-47
2022/09/20 11:03:04;;;;;;;3.90;1.70;;;18.90;51.20;;;;;;7386197;19;20745;-47
2022/09/20 11:05:45;;;;;;;4.30;1.33;;;18.70;51.30;;;;;;7385341;19;20388;-46
2022/09/20 11:08:17;;;;;;;2.90;1.20;;;18.70;52.60;;;;;;7383919;19;20492;-46
2022/09/20 11:10:54;;;;;;;4.30;2.03;;;18.50;51.60;;;;;;7384029;19;20384;-46
2022/09/20 11:13:33;;;;;;;3.90;1.73;;;18.60;52.00;;;;;;7383031;19;20383;-47
2022/09/20 11:16:10;;;;;;;4.83;1.50;;;18.60;52.20;;;;;;7384431;19;20368;-47
2022/09/20 11:18:44;;;;;;;5.47;1.93;;;19.00;52.40;;;;;;7384284;19;20368;-47
2022/09/20 11:21:21;;;;;;;2.97;1.90;;;20.50;52.00;;;;;;7377634;19;20367;-47
2022/09/20 11:23:56;;;;;;;3.30;1.70;;;22.40;48.90;;;;;;7381510;19;20397;-46
2022/09/20 11:26:32;;;;;;;4.00;1.40;;;24.20;44.20;;;;;;7385327;19;20449;-47
2022/09/20 11:29:17;;;;;;;3.10;1.70;;;25.80;42.00;;;;;;7380652;19;20391;-48
2022/09/20 11:31:49;;;;;;;3.77;1.17;;;27.40;38.70;;;;;;7382961;19;20376;-48
2022/09/20 11:34:24;;;;;;;8.10;1.70;;;28.00;36.90;;;;;;7384305;19;20424;-48
2022/09/20 11:36:57;;;;;;;5.60;1.20;;;28.50;35.40;;;;;;7384584;19;20383;-48
2022/09/20 11:39:32;;;;;;;1.77;1.17;;;29.10;34.10;;;;;;7380524;19;20376;-48
2022/09/20 11:42:03;;;;;;;5.07;1.20;;;29.40;32.80;;;;;;7379793;19;20402;-48
2022/09/20 11:44:40;;;;;;;3.63;0.93;;;28.90;33.40;;;;;;7382629;19;20373;-48
2022/09/20 11:47:16;;;;;;;5.53;0.80;;;29.00;33.50;;;;;;7381670;19;20375;-48
2022/09/20 11:49:58;;;;;;;3.00;0.83;;;28.30;32.90;;;;;;7382741;19;20959;-48
2022/09/20 11:52:51;;;;;;;3.90;1.27;;;27.40;34.30;;;;;;7379634;19;20384;-48
2022/09/20 11:55:36;;;;;;;2.33;1.40;;;27.90;33.90;;;;;;7381421;19;20388;-48
2022/09/20 11:58:07;;;;;;;5.33;1.83;;;27.00;35.50;;;;;;7381085;19;20419;-48
2022/09/20 12:00:42;;;;;;;2.23;1.30;;;26.00;37.20;;;;;;7381864;19;21014;-48
2022/09/20 12:03:26;;;;;;;3.40;1.00;;;25.40;37.90;;;;;;7384578;19;20391;-48
2022/09/20 12:06:01;;;;;;;2.23;1.10;;;24.90;38.90;;;;;;7385644;19;20380;-48
2022/09/20 12:08:33;;;;;;;2.63;1.10;;;24.60;38.60;;;;;;7383093;19;20376;-48
2022/09/20 12:11:06;;;;;;;4.10;1.57;;;24.20;39.10;;;;;;7380548;19;20420;-47
2022/09/20 12:13:38;;;;;;;7.23;1.30;;;23.80;39.80;;;;;;7375071;19;20384;-47
2022/09/20 12:16:15;;;;;;;3.30;1.30;;;23.50;39.70;;;;;;7380037;19;20756;-47
2022/09/20 12:19:05;;;;;;;3.57;1.10;;;23.30;38.70;;;;;;7380967;19;20913;-47
2022/09/20 12:22:17;;;;;;;2.47;1.10;;;24.00;36.20;;;;;;7384948;19;20380;-47
2022/09/20 12:24:47;;;;;;;3.57;1.47;;;24.60;36.00;;;;;;7381026;19;20755;-47
2022/09/20 12:27:46;;;;;;;2.37;0.90;;;25.90;35.20;;;;;;7379001;19;20377;-48
2022/09/20 12:30:22;;;;;;;5.90;1.20;;;27.60;32.00;;;;;;7383399;19;20387;-48
2022/09/20 12:32:59;;;;;;;3.13;1.13;;;28.30;31.00;;;;;;7384299;19;20372;-48
2022/09/20 12:35:54;;;;;;;2.13;1.20;;;28.90;30.50;;;;;;7381085;19;20913;-48
2022/09/20 12:38:32;;;;;;;3.40;1.37;;;29.60;30.00;;;;;;7378104;19;20408;-48
2022/09/20 12:41:16;;;;;;;1.90;1.07;;;30.20;29.60;;;;;;7380646;19;20387;-48
2022/09/20 12:43:59;;;;;;;1.67;1.00;;;30.70;28.40;;;;;;7378884;19;20375;-48
2022/09/20 12:46:45;;;;;;;1.90;1.40;;;31.20;28.40;;;;;;7377937;19;20372;-49
2022/09/20 12:55:12;;;;;;;2.93;1.23;;;31.70;28.80;;;;;;7382240;19;20364;-49
2022/09/20 12:57:42;;;;;;;2.30;1.50;;;31.90;28.30;;;;;;7381835;19;20384;-49
2022/09/20 13:00:33;;;;;;;2.57;0.93;;;31.50;28.60;;;;;;7381114;19;20405;-49
2022/09/20 13:03:12;;;;;;;3.60;1.30;;;31.40;28.60;;;;;;7380770;19;20368;-47
2022/09/20 13:05:46;;;;;;;1.80;1.10;;;31.60;28.90;;;;;;7387965;19;20367;-49
2022/09/20 13:08:19;;;;;;;4.73;1.20;;;31.40;28.50;;;;;;7387031;19;20921;-48
2022/09/20 13:10:52;;;;;;;4.83;1.80;;;30.60;28.30;;;;;;7388757;19;20676;-48
2022/09/20 13:13:34;;;;;;;4.80;1.50;;;29.00;29.50;;;;;;7381721;19;20777;-48
2022/09/20 13:16:05;;;;;;;3.50;0.90;;;27.30;32.70;;;;;;7374257;19;20700;-48
2022/09/20 13:18:37;;;;;;;2.40;1.17;;;27.50;31.20;;;;;;7352290;19;20432;-48
2022/09/20 13:21:10;;;;;;;2.40;1.30;;;28.60;30.00;;;;;;7386467;19;20368;-48
2022/09/20 13:23:49;;;;;;;1.80;1.23;;;29.50;29.30;;;;;;7385270;19;20601;-48
2022/09/20 13:26:27;;;;;;;2.80;1.10;;;29.80;28.80;;;;;;7386588;19;20375;-48
2022/09/20 13:29:02;;;;;;;2.50;0.90;;;29.80;28.20;;;;;;7376478;19;20380;-48
2022/09/20 13:31:34;;;;;;;2.50;1.07;;;28.90;28.50;;;;;;7386495;19;20384;-48
2022/09/20 13:34:23;;;;;;;2.60;1.17;;;27.70;30.00;;;;;;7386696;19;20375;-48
2022/09/20 13:36:59;;;;;;;4.33;1.83;;;26.50;31.90;;;;;;7386665;19;20394;-47
2022/09/20 13:39:34;;;;;;;10.20;1.23;;;25.60;33.70;;;;;;7383554;19;20378;-47
2022/09/20 13:42:18;;;;;;;2.73;1.10;;;25.00;34.90;;;;;;7385042;19;20478;-48
2022/09/20 13:44:49;;;;;;;2.03;1.27;;;24.10;36.40;;;;;;7380958;19;20361;-47
2022/09/20 13:47:27;;;;;;;2.70;1.40;;;23.40;38.10;;;;;;7381829;19;20379;-47
2022/09/20 13:50:02;;;;;;;4.03;1.20;;;22.90;39.00;;;;;;7379031;19;20413;-51
2022/09/20 13:52:47;;;;;;;2.13;1.13;;;22.50;40.10;;;;;;7381538;19;20381;-48
2022/09/20 13:55:28;;;;;;;3.77;1.40;;;22.30;39.10;;;;;;7385961;19;20386;-48
2022/09/20 13:58:01;;;;;;;5.67;1.23;;;21.90;40.10;;;;;;7384260;19;20382;-47
2022/09/20 14:00:33;;;;;;;2.07;1.33;;;21.60;41.20;;;;;;7382329;19;20372;-49
2022/09/20 14:03:06;;;;;;;2.83;1.60;;;21.40;41.70;;;;;;7382741;19;20372;-47